sensor_id;sensor_type;location;lat;lon;timestamp;P1;durP1;ratioP1;P2;durP2;ratioP2
11675;SDS011;5894;42.768;23.404;2022-07-24T00:01:45;9.90;;;5.55;;
11675;SDS011;5894;42.768;23.404;2022-07-24T00:04:12;10.52;;;6.15;;
11675;SDS011;5894;42.768;23.404;2022-07-24T00:06:39;10.60;;;6.00;;
11675;SDS011;5894;42.768;23.404;2022-07-24T00:09:06;9.85;;;6.63;;
11675;SDS011;5894;42.768;23.404;2022-07-24T00:11:33;9.20;;;6.68;;
11675;SDS011;5894;42.768;23.404;2022-07-24T00:14:00;13.88;;;6.07;;
11675;SDS011;5894;42.768;23.404;2022-07-24T00:16:27;10.27;;;6.30;;
11675;SDS011;5894;42.768;23.404;2022-07-24T00:18:55;12.05;;;6.90;;
11675;SDS011;5894;42.768;23.404;2022-07-24T00:21:22;14.35;;;7.20;;
11675;SDS011;5894;42.768;23.404;2022-07-24T00:23:49;13.55;;;8.10;;
11675;SDS011;5894;42.768;23.404;2022-07-24T00:26:16;14.75;;;7.78;;
11675;SDS011;5894;42.768;23.404;2022-07-24T00:28:42;13.52;;;8.25;;
11675;SDS011;5894;42.768;23.404;2022-07-24T00:31:09;14.50;;;7.18;;
11675;SDS011;5894;42.768;23.404;2022-07-24T00:33:36;13.05;;;7.47;;
11675;SDS011;5894;42.768;23.404;2022-07-24T00:36:05;12.70;;;7.07;;
11675;SDS011;5894;42.768;23.404;2022-07-24T00:38:33;11.05;;;6.90;;
11675;SDS011;5894;42.768;23.404;2022-07-24T00:41:00;12.38;;;7.03;;
11675;SDS011;5894;42.768;23.404;2022-07-24T00:43:27;13.75;;;6.32;;
11675;SDS011;5894;42.768;23.404;2022-07-24T00:45:53;8.95;;;5.82;;
11675;SDS011;5894;42.768;23.404;2022-07-24T00:48:20;9.52;;;5.60;;
11675;SDS011;5894;42.768;23.404;2022-07-24T00:50:47;8.07;;;5.53;;
11675;SDS011;5894;42.768;23.404;2022-07-24T00:53:16;12.18;;;5.72;;
11675;SDS011;5894;42.768;23.404;2022-07-24T00:55:43;11.65;;;5.75;;
11675;SDS011;5894;42.768;23.404;2022-07-24T00:58:10;10.25;;;6.00;;
11675;SDS011;5894;42.768;23.404;2022-07-24T01:00:38;7.80;;;5.55;;
11675;SDS011;5894;42.768;23.404;2022-07-24T01:03:04;7.13;;;5.30;;
11675;SDS011;5894;42.768;23.404;2022-07-24T01:05:31;11.77;;;5.80;;
11675;SDS011;5894;42.768;23.404;2022-07-24T01:07:58;8.65;;;5.40;;
11675;SDS011;5894;42.768;23.404;2022-07-24T01:10:28;8.82;;;4.82;;
11675;SDS011;5894;42.768;23.404;2022-07-24T01:12:55;7.95;;;5.47;;
11675;SDS011;5894;42.768;23.404;2022-07-24T01:15:23;9.63;;;4.85;;
11675;SDS011;5894;42.768;23.404;2022-07-24T01:17:49;8.80;;;5.50;;
11675;SDS011;5894;42.768;23.404;2022-07-24T01:20:16;8.20;;;5.35;;
11675;SDS011;5894;42.768;23.404;2022-07-24T01:22:44;11.93;;;5.50;;
11675;SDS011;5894;42.768;23.404;2022-07-24T01:25:11;6.45;;;5.13;;
11675;SDS011;5894;42.768;23.404;2022-07-24T01:27:38;6.65;;;5.00;;
11675;SDS011;5894;42.768;23.404;2022-07-24T01:30:05;8.98;;;5.25;;
11675;SDS011;5894;42.768;23.404;2022-07-24T01:32:33;9.32;;;5.80;;
11675;SDS011;5894;42.768;23.404;2022-07-24T01:35:00;7.80;;;5.22;;
11675;SDS011;5894;42.768;23.404;2022-07-24T01:37:27;7.25;;;5.45;;
11675;SDS011;5894;42.768;23.404;2022-07-24T01:39:55;9.32;;;5.85;;
11675;SDS011;5894;42.768;23.404;2022-07-24T01:42:22;11.80;;;6.28;;
11675;SDS011;5894;42.768;23.404;2022-07-24T01:44:50;9.35;;;5.80;;
11675;SDS011;5894;42.768;23.404;2022-07-24T01:47:17;7.50;;;5.82;;
11675;SDS011;5894;42.768;23.404;2022-07-24T01:49:44;10.15;;;6.07;;
11675;SDS011;5894;42.768;23.404;2022-07-24T01:52:11;11.07;;;6.03;;
11675;SDS011;5894;42.768;23.404;2022-07-24T01:54:38;13.77;;;5.65;;
11675;SDS011;5894;42.768;23.404;2022-07-24T01:57:06;8.45;;;5.80;;
11675;SDS011;5894;42.768;23.404;2022-07-24T01:59:33;9.32;;;6.40;;
11675;SDS011;5894;42.768;23.404;2022-07-24T02:01:59;7.57;;;5.78;;
11675;SDS011;5894;42.768;23.404;2022-07-24T02:04:26;8.02;;;5.80;;
11675;SDS011;5894;42.768;23.404;2022-07-24T02:06:53;7.75;;;5.55;;
11675;SDS011;5894;42.768;23.404;2022-07-24T02:09:20;9.45;;;6.10;;
11675;SDS011;5894;42.768;23.404;2022-07-24T02:11:47;9.25;;;5.97;;
11675;SDS011;5894;42.768;23.404;2022-07-24T02:14:15;7.80;;;5.80;;
11675;SDS011;5894;42.768;23.404;2022-07-24T02:16:42;8.55;;;5.80;;
11675;SDS011;5894;42.768;23.404;2022-07-24T02:19:09;10.48;;;5.88;;
11675;SDS011;5894;42.768;23.404;2022-07-24T02:21:36;8.82;;;6.28;;
11675;SDS011;5894;42.768;23.404;2022-07-24T02:24:03;11.90;;;5.82;;
11675;SDS011;5894;42.768;23.404;2022-07-24T02:26:31;9.00;;;6.03;;
11675;SDS011;5894;42.768;23.404;2022-07-24T02:28:58;9.65;;;5.95;;
11675;SDS011;5894;42.768;23.404;2022-07-24T02:31:26;9.60;;;6.40;;
11675;SDS011;5894;42.768;23.404;2022-07-24T02:33:53;11.32;;;6.30;;
11675;SDS011;5894;42.768;23.404;2022-07-24T02:36:20;10.88;;;6.10;;
11675;SDS011;5894;42.768;23.404;2022-07-24T02:38:47;9.07;;;6.05;;
11675;SDS011;5894;42.768;23.404;2022-07-24T02:41:14;9.57;;;6.07;;
11675;SDS011;5894;42.768;23.404;2022-07-24T02:43:41;10.00;;;6.15;;
11675;SDS011;5894;42.768;23.404;2022-07-24T02:46:07;11.10;;;6.70;;
11675;SDS011;5894;42.768;23.404;2022-07-24T02:48:35;9.60;;;6.80;;
11675;SDS011;5894;42.768;23.404;2022-07-24T02:51:03;9.25;;;7.07;;
11675;SDS011;5894;42.768;23.404;2022-07-24T02:53:30;12.82;;;7.25;;
11675;SDS011;5894;42.768;23.404;2022-07-24T02:55:57;10.52;;;7.28;;
11675;SDS011;5894;42.768;23.404;2022-07-24T02:58:24;9.50;;;7.32;;
11675;SDS011;5894;42.768;23.404;2022-07-24T03:00:51;11.73;;;7.15;;
11675;SDS011;5894;42.768;23.404;2022-07-24T03:03:18;9.02;;;6.65;;
11675;SDS011;5894;42.768;23.404;2022-07-24T03:05:46;8.88;;;7.07;;
11675;SDS011;5894;42.768;23.404;2022-07-24T03:08:13;16.50;;;7.20;;
11675;SDS011;5894;42.768;23.404;2022-07-24T03:10:40;12.05;;;7.45;;
11675;SDS011;5894;42.768;23.404;2022-07-24T03:13:07;9.93;;;7.28;;
11675;SDS011;5894;42.768;23.404;2022-07-24T03:15:34;11.95;;;7.68;;
11675;SDS011;5894;42.768;23.404;2022-07-24T03:18:01;8.35;;;6.38;;
11675;SDS011;5894;42.768;23.404;2022-07-24T03:20:28;9.90;;;6.72;;
11675;SDS011;5894;42.768;23.404;2022-07-24T03:22:56;10.40;;;7.13;;
11675;SDS011;5894;42.768;23.404;2022-07-24T03:25:24;10.90;;;6.50;;
11675;SDS011;5894;42.768;23.404;2022-07-24T03:27:51;11.13;;;7.20;;
11675;SDS011;5894;42.768;23.404;2022-07-24T03:30:18;11.65;;;6.53;;
11675;SDS011;5894;42.768;23.404;2022-07-24T03:32:45;10.27;;;6.97;;
11675;SDS011;5894;42.768;23.404;2022-07-24T03:35:12;10.07;;;6.70;;
11675;SDS011;5894;42.768;23.404;2022-07-24T03:37:39;9.48;;;7.07;;
11675;SDS011;5894;42.768;23.404;2022-07-24T03:40:09;11.38;;;6.85;;
11675;SDS011;5894;42.768;23.404;2022-07-24T03:42:36;10.20;;;7.00;;
11675;SDS011;5894;42.768;23.404;2022-07-24T03:45:03;17.80;;;7.30;;
11675;SDS011;5894;42.768;23.404;2022-07-24T03:47:31;8.75;;;6.50;;
11675;SDS011;5894;42.768;23.404;2022-07-24T03:49:58;13.25;;;6.88;;
11675;SDS011;5894;42.768;23.404;2022-07-24T03:52:24;10.15;;;7.00;;
11675;SDS011;5894;42.768;23.404;2022-07-24T03:54:51;11.65;;;7.07;;
11675;SDS011;5894;42.768;23.404;2022-07-24T03:57:21;12.88;;;6.85;;
11675;SDS011;5894;42.768;23.404;2022-07-24T03:59:48;10.70;;;6.30;;
11675;SDS011;5894;42.768;23.404;2022-07-24T04:02:15;12.23;;;6.60;;
11675;SDS011;5894;42.768;23.404;2022-07-24T04:04:42;11.48;;;6.88;;
11675;SDS011;5894;42.768;23.404;2022-07-24T04:07:09;7.75;;;6.47;;
11675;SDS011;5894;42.768;23.404;2022-07-24T04:09:35;9.25;;;6.38;;
11675;SDS011;5894;42.768;23.404;2022-07-24T04:12:03;11.68;;;7.07;;
11675;SDS011;5894;42.768;23.404;2022-07-24T04:14:31;10.35;;;7.15;;
11675;SDS011;5894;42.768;23.404;2022-07-24T04:16:58;13.27;;;7.32;;
11675;SDS011;5894;42.768;23.404;2022-07-24T04:19:25;11.93;;;7.18;;
11675;SDS011;5894;42.768;23.404;2022-07-24T04:21:52;9.82;;;7.13;;
11675;SDS011;5894;42.768;23.404;2022-07-24T04:24:18;10.82;;;6.82;;
11675;SDS011;5894;42.768;23.404;2022-07-24T04:26:45;9.80;;;6.68;;
11675;SDS011;5894;42.768;23.404;2022-07-24T04:29:12;10.20;;;7.35;;
11675;SDS011;5894;42.768;23.404;2022-07-24T04:31:40;18.35;;;7.55;;
11675;SDS011;5894;42.768;23.404;2022-07-24T04:34:07;9.55;;;7.28;;
11675;SDS011;5894;42.768;23.404;2022-07-24T04:36:34;15.13;;;7.72;;
11675;SDS011;5894;42.768;23.404;2022-07-24T04:39:01;12.25;;;7.43;;
11675;SDS011;5894;42.768;23.404;2022-07-24T04:41:28;10.80;;;7.53;;
11675;SDS011;5894;42.768;23.404;2022-07-24T04:43:55;14.07;;;7.72;;
11675;SDS011;5894;42.768;23.404;2022-07-24T04:46:21;8.52;;;7.20;;
11675;SDS011;5894;42.768;23.404;2022-07-24T04:48:50;9.38;;;7.07;;
11675;SDS011;5894;42.768;23.404;2022-07-24T04:51:16;12.00;;;7.80;;
11675;SDS011;5894;42.768;23.404;2022-07-24T04:53:43;8.07;;;7.28;;
11675;SDS011;5894;42.768;23.404;2022-07-24T04:56:11;9.65;;;7.22;;
11675;SDS011;5894;42.768;23.404;2022-07-24T04:58:38;11.50;;;7.30;;
11675;SDS011;5894;42.768;23.404;2022-07-24T05:01:05;10.30;;;7.55;;
11675;SDS011;5894;42.768;23.404;2022-07-24T05:03:32;9.85;;;7.25;;
11675;SDS011;5894;42.768;23.404;2022-07-24T05:06:00;12.45;;;7.15;;
11675;SDS011;5894;42.768;23.404;2022-07-24T05:08:27;9.88;;;7.28;;
11675;SDS011;5894;42.768;23.404;2022-07-24T05:10:54;10.65;;;7.20;;
11675;SDS011;5894;42.768;23.404;2022-07-24T05:13:21;10.05;;;6.82;;
11675;SDS011;5894;42.768;23.404;2022-07-24T05:15:48;10.02;;;6.72;;
11675;SDS011;5894;42.768;23.404;2022-07-24T05:18:15;10.35;;;6.88;;
11675;SDS011;5894;42.768;23.404;2022-07-24T05:20:42;12.75;;;6.88;;
11675;SDS011;5894;42.768;23.404;2022-07-24T05:23:10;8.25;;;6.93;;
11675;SDS011;5894;42.768;23.404;2022-07-24T05:25:37;11.43;;;6.28;;
11675;SDS011;5894;42.768;23.404;2022-07-24T05:28:04;8.68;;;6.75;;
11675;SDS011;5894;42.768;23.404;2022-07-24T05:30:30;11.27;;;7.00;;
11675;SDS011;5894;42.768;23.404;2022-07-24T05:32:57;10.02;;;6.93;;
11675;SDS011;5894;42.768;23.404;2022-07-24T05:35:24;10.55;;;6.70;;
11675;SDS011;5894;42.768;23.404;2022-07-24T05:37:51;8.75;;;6.57;;
11675;SDS011;5894;42.768;23.404;2022-07-24T05:40:19;10.23;;;6.93;;
11675;SDS011;5894;42.768;23.404;2022-07-24T05:42:46;10.50;;;6.85;;
11675;SDS011;5894;42.768;23.404;2022-07-24T05:45:13;9.75;;;6.35;;
11675;SDS011;5894;42.768;23.404;2022-07-24T05:47:40;9.93;;;6.10;;
11675;SDS011;5894;42.768;23.404;2022-07-24T05:50:07;10.95;;;6.88;;
11675;SDS011;5894;42.768;23.404;2022-07-24T05:52:35;10.23;;;6.53;;
11675;SDS011;5894;42.768;23.404;2022-07-24T05:55:03;10.45;;;7.50;;
11675;SDS011;5894;42.768;23.404;2022-07-24T05:57:32;11.50;;;6.70;;
11675;SDS011;5894;42.768;23.404;2022-07-24T05:59:59;9.38;;;6.97;;
11675;SDS011;5894;42.768;23.404;2022-07-24T06:02:26;10.38;;;7.05;;
11675;SDS011;5894;42.768;23.404;2022-07-24T06:04:53;10.13;;;7.15;;
11675;SDS011;5894;42.768;23.404;2022-07-24T06:07:20;11.77;;;7.13;;
11675;SDS011;5894;42.768;23.404;2022-07-24T06:09:47;12.05;;;7.38;;
11675;SDS011;5894;42.768;23.404;2022-07-24T06:12:13;12.07;;;7.80;;
11675;SDS011;5894;42.768;23.404;2022-07-24T06:14:41;11.88;;;7.10;;
11675;SDS011;5894;42.768;23.404;2022-07-24T06:17:08;13.68;;;7.53;;
11675;SDS011;5894;42.768;23.404;2022-07-24T06:19:36;9.57;;;7.63;;
11675;SDS011;5894;42.768;23.404;2022-07-24T06:22:02;9.00;;;7.55;;
11675;SDS011;5894;42.768;23.404;2022-07-24T06:24:29;12.02;;;7.38;;
11675;SDS011;5894;42.768;23.404;2022-07-24T06:26:56;9.63;;;7.50;;
11675;SDS011;5894;42.768;23.404;2022-07-24T06:29:23;14.82;;;8.18;;
11675;SDS011;5894;42.768;23.404;2022-07-24T06:31:51;13.77;;;7.63;;
11675;SDS011;5894;42.768;23.404;2022-07-24T06:34:18;10.13;;;7.10;;
11675;SDS011;5894;42.768;23.404;2022-07-24T06:36:48;11.57;;;7.38;;
11675;SDS011;5894;42.768;23.404;2022-07-24T06:39:15;10.25;;;7.57;;
11675;SDS011;5894;42.768;23.404;2022-07-24T06:41:42;11.48;;;9.20;;
11675;SDS011;5894;42.768;23.404;2022-07-24T06:44:23;17.63;;;12.35;;
11675;SDS011;5894;42.768;23.404;2022-07-24T06:46:51;15.68;;;12.10;;
11675;SDS011;5894;42.768;23.404;2022-07-24T06:49:18;13.73;;;11.73;;
11675;SDS011;5894;42.768;23.404;2022-07-24T06:51:45;11.90;;;9.77;;
11675;SDS011;5894;42.768;23.404;2022-07-24T06:54:13;15.27;;;9.02;;
11675;SDS011;5894;42.768;23.404;2022-07-24T06:56:39;14.93;;;9.10;;
11675;SDS011;5894;42.768;23.404;2022-07-24T06:59:06;15.20;;;8.60;;
11675;SDS011;5894;42.768;23.404;2022-07-24T07:01:33;11.15;;;7.82;;
11675;SDS011;5894;42.768;23.404;2022-07-24T07:04:01;12.75;;;8.07;;
11675;SDS011;5894;42.768;23.404;2022-07-24T07:06:28;11.40;;;7.68;;
11675;SDS011;5894;42.768;23.404;2022-07-24T07:08:55;11.75;;;8.00;;
11675;SDS011;5894;42.768;23.404;2022-07-24T07:11:22;11.07;;;7.75;;
11675;SDS011;5894;42.768;23.404;2022-07-24T07:13:49;9.88;;;8.05;;
11675;SDS011;5894;42.768;23.404;2022-07-24T07:16:15;12.77;;;7.40;;
11675;SDS011;5894;42.768;23.404;2022-07-24T07:18:42;9.50;;;7.28;;
11675;SDS011;5894;42.768;23.404;2022-07-24T07:21:10;10.05;;;7.18;;
11675;SDS011;5894;42.768;23.404;2022-07-24T07:23:37;9.68;;;6.72;;
11675;SDS011;5894;42.768;23.404;2022-07-24T07:26:04;14.38;;;7.50;;
11675;SDS011;5894;42.768;23.404;2022-07-24T07:28:31;11.18;;;7.45;;
11675;SDS011;5894;42.768;23.404;2022-07-24T07:30:58;12.48;;;7.28;;
11675;SDS011;5894;42.768;23.404;2022-07-24T07:33:24;10.18;;;7.00;;
11675;SDS011;5894;42.768;23.404;2022-07-24T07:35:52;9.30;;;6.50;;
11675;SDS011;5894;42.768;23.404;2022-07-24T07:38:20;9.73;;;7.50;;
11675;SDS011;5894;42.768;23.404;2022-07-24T07:40:47;9.60;;;7.65;;
11675;SDS011;5894;42.768;23.404;2022-07-24T07:43:13;10.07;;;6.90;;
11675;SDS011;5894;42.768;23.404;2022-07-24T07:45:40;8.00;;;7.20;;
11675;SDS011;5894;42.768;23.404;2022-07-24T07:48:07;9.30;;;7.07;;
11675;SDS011;5894;42.768;23.404;2022-07-24T07:50:34;9.15;;;6.65;;
11675;SDS011;5894;42.768;23.404;2022-07-24T07:53:00;10.25;;;6.93;;
11675;SDS011;5894;42.768;23.404;2022-07-24T07:55:29;10.90;;;6.53;;
11675;SDS011;5894;42.768;23.404;2022-07-24T07:57:55;13.25;;;7.50;;
11675;SDS011;5894;42.768;23.404;2022-07-24T08:00:22;9.27;;;6.95;;
11675;SDS011;5894;42.768;23.404;2022-07-24T08:02:49;10.90;;;7.38;;
11675;SDS011;5894;42.768;23.404;2022-07-24T08:05:16;11.40;;;7.47;;
11675;SDS011;5894;42.768;23.404;2022-07-24T08:07:43;11.05;;;7.00;;
11675;SDS011;5894;42.768;23.404;2022-07-24T08:10:09;11.45;;;7.20;;
11675;SDS011;5894;42.768;23.404;2022-07-24T08:12:38;10.30;;;7.30;;
11675;SDS011;5894;42.768;23.404;2022-07-24T08:15:05;10.38;;;6.60;;
11675;SDS011;5894;42.768;23.404;2022-07-24T08:17:33;11.63;;;7.40;;
11675;SDS011;5894;42.768;23.404;2022-07-24T08:20:00;11.23;;;6.50;;
11675;SDS011;5894;42.768;23.404;2022-07-24T08:22:27;8.00;;;6.20;;
11675;SDS011;5894;42.768;23.404;2022-07-24T08:24:55;9.23;;;6.78;;
11675;SDS011;5894;42.768;23.404;2022-07-24T08:27:22;8.82;;;6.28;;
11675;SDS011;5894;42.768;23.404;2022-07-24T08:29:50;9.40;;;6.43;;
11675;SDS011;5894;42.768;23.404;2022-07-24T08:32:17;8.98;;;6.70;;
11675;SDS011;5894;42.768;23.404;2022-07-24T08:34:44;9.38;;;6.15;;
11675;SDS011;5894;42.768;23.404;2022-07-24T08:37:10;9.60;;;6.50;;
11675;SDS011;5894;42.768;23.404;2022-07-24T08:39:37;8.27;;;6.15;;
11675;SDS011;5894;42.768;23.404;2022-07-24T08:42:06;9.63;;;5.70;;
11675;SDS011;5894;42.768;23.404;2022-07-24T08:44:33;12.15;;;5.90;;
11675;SDS011;5894;42.768;23.404;2022-07-24T08:47:02;8.82;;;5.65;;
11675;SDS011;5894;42.768;23.404;2022-07-24T08:49:29;7.35;;;5.72;;
11675;SDS011;5894;42.768;23.404;2022-07-24T08:51:57;7.68;;;5.55;;
11675;SDS011;5894;42.768;23.404;2022-07-24T08:54:27;11.45;;;6.05;;
11675;SDS011;5894;42.768;23.404;2022-07-24T08:56:54;8.30;;;5.70;;
11675;SDS011;5894;42.768;23.404;2022-07-24T08:59:22;7.05;;;5.93;;
11675;SDS011;5894;42.768;23.404;2022-07-24T09:01:49;10.60;;;6.40;;
11675;SDS011;5894;42.768;23.404;2022-07-24T09:04:37;12.77;;;6.53;;
11675;SDS011;5894;42.768;23.404;2022-07-24T09:07:05;11.18;;;6.18;;
11675;SDS011;5894;42.768;23.404;2022-07-24T09:09:33;12.20;;;7.25;;
11675;SDS011;5894;42.768;23.404;2022-07-24T09:12:07;11.70;;;6.72;;
11675;SDS011;5894;42.768;23.404;2022-07-24T09:14:36;10.00;;;7.03;;
11675;SDS011;5894;42.768;23.404;2022-07-24T09:17:04;8.27;;;6.60;;
11675;SDS011;5894;42.768;23.404;2022-07-24T09:19:46;12.52;;;6.40;;
11675;SDS011;5894;42.768;23.404;2022-07-24T09:22:16;9.38;;;6.15;;
11675;SDS011;5894;42.768;23.404;2022-07-24T09:24:57;11.60;;;6.28;;
11675;SDS011;5894;42.768;23.404;2022-07-24T09:27:31;10.35;;;6.63;;
11675;SDS011;5894;42.768;23.404;2022-07-24T09:29:59;7.78;;;6.10;;
11675;SDS011;5894;42.768;23.404;2022-07-24T09:32:26;9.80;;;6.32;;
11675;SDS011;5894;42.768;23.404;2022-07-24T09:34:55;10.32;;;6.20;;
11675;SDS011;5894;42.768;23.404;2022-07-24T09:37:22;6.95;;;6.25;;
11675;SDS011;5894;42.768;23.404;2022-07-24T09:39:52;12.73;;;7.32;;
11675;SDS011;5894;42.768;23.404;2022-07-24T09:42:23;11.38;;;7.20;;
11675;SDS011;5894;42.768;23.404;2022-07-24T09:44:57;11.55;;;7.00;;
11675;SDS011;5894;42.768;23.404;2022-07-24T09:47:24;10.85;;;6.63;;
11675;SDS011;5894;42.768;23.404;2022-07-24T09:49:51;10.52;;;6.82;;
11675;SDS011;5894;42.768;23.404;2022-07-24T09:52:36;10.02;;;6.45;;
11675;SDS011;5894;42.768;23.404;2022-07-24T09:55:09;10.02;;;6.90;;
11675;SDS011;5894;42.768;23.404;2022-07-24T09:57:47;12.65;;;6.57;;
11675;SDS011;5894;42.768;23.404;2022-07-24T10:00:15;9.65;;;6.72;;
11675;SDS011;5894;42.768;23.404;2022-07-24T10:02:43;9.40;;;6.28;;
11675;SDS011;5894;42.768;23.404;2022-07-24T10:05:13;9.88;;;6.70;;
11675;SDS011;5894;42.768;23.404;2022-07-24T10:07:41;11.85;;;7.03;;
11675;SDS011;5894;42.768;23.404;2022-07-24T10:10:10;10.98;;;6.32;;
11675;SDS011;5894;42.768;23.404;2022-07-24T10:12:38;11.27;;;6.80;;
11675;SDS011;5894;42.768;23.404;2022-07-24T10:15:06;11.43;;;6.70;;
11675;SDS011;5894;42.768;23.404;2022-07-24T10:17:38;10.05;;;6.70;;
11675;SDS011;5894;42.768;23.404;2022-07-24T10:20:34;12.82;;;7.70;;
11675;SDS011;5894;42.768;23.404;2022-07-24T10:23:05;8.93;;;6.55;;
11675;SDS011;5894;42.768;23.404;2022-07-24T10:25:38;20.05;;;6.78;;
11675;SDS011;5894;42.768;23.404;2022-07-24T10:28:35;14.50;;;6.68;;
11675;SDS011;5894;42.768;23.404;2022-07-24T10:31:04;13.18;;;6.15;;
11675;SDS011;5894;42.768;23.404;2022-07-24T10:33:33;10.65;;;6.32;;
11675;SDS011;5894;42.768;23.404;2022-07-24T10:36:06;8.00;;;6.03;;
11675;SDS011;5894;42.768;23.404;2022-07-24T10:38:41;8.70;;;5.75;;
11675;SDS011;5894;42.768;23.404;2022-07-24T10:41:21;7.85;;;6.20;;
11675;SDS011;5894;42.768;23.404;2022-07-24T10:49:39;7.82;;;5.85;;
11675;SDS011;5894;42.768;23.404;2022-07-24T10:52:21;10.02;;;5.72;;
11675;SDS011;5894;42.768;23.404;2022-07-24T10:57:46;8.45;;;5.63;;
11675;SDS011;5894;42.768;23.404;2022-07-24T11:00:24;20.85;;;6.57;;
11675;SDS011;5894;42.768;23.404;2022-07-24T11:02:59;7.00;;;6.30;;
11675;SDS011;5894;42.768;23.404;2022-07-24T11:05:31;9.77;;;6.45;;
11675;SDS011;5894;42.768;23.404;2022-07-24T11:11:12;10.68;;;6.00;;
11675;SDS011;5894;42.768;23.404;2022-07-24T11:13:42;9.70;;;6.05;;
11675;SDS011;5894;42.768;23.404;2022-07-24T11:16:26;9.70;;;6.00;;
11675;SDS011;5894;42.768;23.404;2022-07-24T11:22:09;7.30;;;5.90;;
11675;SDS011;5894;42.768;23.404;2022-07-24T11:27:48;11.50;;;6.05;;
11675;SDS011;5894;42.768;23.404;2022-07-24T11:30:18;7.35;;;6.03;;
11675;SDS011;5894;42.768;23.404;2022-07-24T11:32:46;10.80;;;6.25;;
11675;SDS011;5894;42.768;23.404;2022-07-24T11:35:13;8.75;;;5.70;;
11675;SDS011;5894;42.768;23.404;2022-07-24T11:37:40;9.10;;;6.32;;
11675;SDS011;5894;42.768;23.404;2022-07-24T11:40:15;8.63;;;6.28;;
11675;SDS011;5894;42.768;23.404;2022-07-24T11:42:43;8.05;;;5.90;;
11675;SDS011;5894;42.768;23.404;2022-07-24T11:45:10;8.48;;;6.07;;
11675;SDS011;5894;42.768;23.404;2022-07-24T11:47:37;8.98;;;6.07;;
11675;SDS011;5894;42.768;23.404;2022-07-24T11:50:05;6.22;;;5.63;;
11675;SDS011;5894;42.768;23.404;2022-07-24T11:52:33;7.10;;;6.10;;
11675;SDS011;5894;42.768;23.404;2022-07-24T11:55:03;7.00;;;6.15;;
11675;SDS011;5894;42.768;23.404;2022-07-24T11:57:35;12.73;;;6.10;;
11675;SDS011;5894;42.768;23.404;2022-07-24T12:00:04;8.65;;;5.97;;
11675;SDS011;5894;42.768;23.404;2022-07-24T12:02:37;9.05;;;6.50;;
11675;SDS011;5894;42.768;23.404;2022-07-24T12:05:09;10.65;;;6.45;;
11675;SDS011;5894;42.768;23.404;2022-07-24T12:07:36;8.25;;;6.13;;
11675;SDS011;5894;42.768;23.404;2022-07-24T12:10:03;9.38;;;6.05;;
11675;SDS011;5894;42.768;23.404;2022-07-24T12:12:31;9.52;;;6.30;;
11675;SDS011;5894;42.768;23.404;2022-07-24T12:15:02;8.73;;;6.38;;
11675;SDS011;5894;42.768;23.404;2022-07-24T12:17:32;8.82;;;6.53;;
11675;SDS011;5894;42.768;23.404;2022-07-24T12:20:00;9.65;;;6.18;;
11675;SDS011;5894;42.768;23.404;2022-07-24T12:22:31;6.80;;;6.13;;
11675;SDS011;5894;42.768;23.404;2022-07-24T12:24:58;8.00;;;6.35;;
11675;SDS011;5894;42.768;23.404;2022-07-24T12:27:34;9.15;;;6.28;;
11675;SDS011;5894;42.768;23.404;2022-07-24T12:30:03;8.70;;;5.70;;
11675;SDS011;5894;42.768;23.404;2022-07-24T12:32:51;8.90;;;6.07;;
11675;SDS011;5894;42.768;23.404;2022-07-24T12:35:23;12.05;;;6.80;;
11675;SDS011;5894;42.768;23.404;2022-07-24T12:37:51;9.50;;;6.22;;
11675;SDS011;5894;42.768;23.404;2022-07-24T12:40:22;9.07;;;6.50;;
11675;SDS011;5894;42.768;23.404;2022-07-24T12:42:56;9.80;;;5.53;;
11675;SDS011;5894;42.768;23.404;2022-07-24T12:45:27;6.05;;;5.53;;
11675;SDS011;5894;42.768;23.404;2022-07-24T12:48:05;7.15;;;6.00;;
11675;SDS011;5894;42.768;23.404;2022-07-24T12:50:33;11.13;;;5.97;;
11675;SDS011;5894;42.768;23.404;2022-07-24T12:53:02;8.35;;;5.93;;
11675;SDS011;5894;42.768;23.404;2022-07-24T12:55:30;10.85;;;6.25;;
11675;SDS011;5894;42.768;23.404;2022-07-24T12:57:59;8.18;;;5.82;;
11675;SDS011;5894;42.768;23.404;2022-07-24T13:00:27;8.07;;;6.05;;
11675;SDS011;5894;42.768;23.404;2022-07-24T13:02:54;6.68;;;6.05;;
11675;SDS011;5894;42.768;23.404;2022-07-24T13:05:37;6.03;;;5.53;;
11675;SDS011;5894;42.768;23.404;2022-07-24T13:08:05;11.63;;;6.20;;
11675;SDS011;5894;42.768;23.404;2022-07-24T13:10:34;6.97;;;5.72;;
11675;SDS011;5894;42.768;23.404;2022-07-24T13:13:05;6.43;;;5.32;;
11675;SDS011;5894;42.768;23.404;2022-07-24T13:15:31;6.88;;;6.20;;
11675;SDS011;5894;42.768;23.404;2022-07-24T13:17:59;6.78;;;6.18;;
11675;SDS011;5894;42.768;23.404;2022-07-24T13:20:26;6.93;;;6.38;;
11675;SDS011;5894;42.768;23.404;2022-07-24T13:22:53;7.38;;;6.70;;
11675;SDS011;5894;42.768;23.404;2022-07-24T13:25:20;11.50;;;6.88;;
11675;SDS011;5894;42.768;23.404;2022-07-24T13:27:47;6.57;;;5.97;;
11675;SDS011;5894;42.768;23.404;2022-07-24T13:30:15;7.00;;;6.30;;
11675;SDS011;5894;42.768;23.404;2022-07-24T13:32:42;6.05;;;5.55;;
11675;SDS011;5894;42.768;23.404;2022-07-24T13:35:08;6.05;;;5.50;;
11675;SDS011;5894;42.768;23.404;2022-07-24T13:37:36;6.13;;;5.53;;
11675;SDS011;5894;42.768;23.404;2022-07-24T13:40:03;5.90;;;5.32;;
11675;SDS011;5894;42.768;23.404;2022-07-24T13:42:32;6.20;;;5.57;;
11675;SDS011;5894;42.768;23.404;2022-07-24T13:44:59;6.97;;;5.57;;
11675;SDS011;5894;42.768;23.404;2022-07-24T13:47:27;5.93;;;5.43;;
11675;SDS011;5894;42.768;23.404;2022-07-24T13:49:54;5.93;;;5.43;;
11675;SDS011;5894;42.768;23.404;2022-07-24T13:52:21;8.65;;;5.75;;
11675;SDS011;5894;42.768;23.404;2022-07-24T13:54:48;6.00;;;5.50;;
11675;SDS011;5894;42.768;23.404;2022-07-24T13:57:15;6.22;;;5.72;;
11675;SDS011;5894;42.768;23.404;2022-07-24T13:59:41;7.18;;;6.03;;
11675;SDS011;5894;42.768;23.404;2022-07-24T14:02:08;6.50;;;5.72;;
11675;SDS011;5894;42.768;23.404;2022-07-24T14:04:36;5.82;;;5.32;;
11675;SDS011;5894;42.768;23.404;2022-07-24T14:07:03;5.90;;;5.28;;
11675;SDS011;5894;42.768;23.404;2022-07-24T14:09:30;34.25;;;7.97;;
11675;SDS011;5894;42.768;23.404;2022-07-24T14:11:57;17.48;;;6.68;;
11675;SDS011;5894;42.768;23.404;2022-07-24T14:14:23;18.40;;;7.30;;
11675;SDS011;5894;42.768;23.404;2022-07-24T14:16:50;16.30;;;7.00;;
11675;SDS011;5894;42.768;23.404;2022-07-24T14:19:17;14.73;;;7.03;;
11675;SDS011;5894;42.768;23.404;2022-07-24T14:21:45;18.60;;;7.32;;
11675;SDS011;5894;42.768;23.404;2022-07-24T14:24:13;12.70;;;8.57;;
11675;SDS011;5894;42.768;23.404;2022-07-24T14:26:41;10.23;;;8.68;;
11675;SDS011;5894;42.768;23.404;2022-07-24T14:29:08;10.00;;;7.75;;
11675;SDS011;5894;42.768;23.404;2022-07-24T14:31:35;11.55;;;7.90;;
11675;SDS011;5894;42.768;23.404;2022-07-24T14:34:02;8.82;;;8.10;;
11675;SDS011;5894;42.768;23.404;2022-07-24T14:36:29;11.20;;;8.57;;
11675;SDS011;5894;42.768;23.404;2022-07-24T14:38:57;9.32;;;8.43;;
11675;SDS011;5894;42.768;23.404;2022-07-24T14:41:24;9.93;;;8.82;;
11675;SDS011;5894;42.768;23.404;2022-07-24T14:43:51;9.82;;;8.65;;
11675;SDS011;5894;42.768;23.404;2022-07-24T14:46:18;16.40;;;9.63;;
11675;SDS011;5894;42.768;23.404;2022-07-24T14:48:44;18.10;;;10.15;;
11675;SDS011;5894;42.768;23.404;2022-07-24T14:51:11;19.00;;;10.50;;
11675;SDS011;5894;42.768;23.404;2022-07-24T14:53:38;12.35;;;9.45;;
11675;SDS011;5894;42.768;23.404;2022-07-24T14:56:07;11.10;;;10.10;;
11675;SDS011;5894;42.768;23.404;2022-07-24T14:58:33;10.68;;;9.25;;
11675;SDS011;5894;42.768;23.404;2022-07-24T15:01:00;10.75;;;9.63;;
11675;SDS011;5894;42.768;23.404;2022-07-24T15:03:27;10.05;;;9.13;;
11675;SDS011;5894;42.768;23.404;2022-07-24T15:05:54;10.50;;;8.80;;